createdAt,value
2018-03-25T00:00:25.412Z,994.01
2018-03-25T00:01:26.003Z,993.97
2018-03-25T00:02:26.592Z,994.03
2018-03-25T00:03:27.193Z,994.04
2018-03-25T00:04:27.793Z,994.02
2018-03-25T00:05:28.388Z,993.99
2018-03-25T00:06:28.979Z,994.02
2018-03-25T00:07:29.567Z,994.02
2018-03-25T00:08:30.198Z,993.99
2018-03-25T00:09:30.796Z,994.02
2018-03-25T00:10:31.386Z,993.98
2018-03-25T00:11:31.971Z,993.98
2018-03-25T00:12:32.555Z,993.96
2018-03-25T00:13:33.154Z,993.95
2018-03-25T00:14:33.750Z,994.03
2018-03-25T00:15:34.347Z,994.02
2018-03-25T00:16:34.983Z,993.98
2018-03-25T00:17:35.571Z,993.98
2018-03-25T00:18:36.152Z,993.97
2018-03-25T00:19:36.762Z,993.98
2018-03-25T00:20:37.339Z,993.96
2018-03-25T00:21:37.934Z,993.97
2018-03-25T00:22:38.530Z,993.97
2018-03-25T00:23:39.113Z,993.98
2018-03-25T00:24:39.710Z,993.96
2018-03-25T00:25:40.304Z,993.97
2018-03-25T00:26:40.890Z,994.00
2018-03-25T00:27:41.532Z,993.94
2018-03-25T00:28:42.086Z,993.96
2018-03-25T00:29:42.677Z,993.95
2018-03-25T00:30:43.282Z,993.97
2018-03-25T00:31:43.868Z,993.94
2018-03-25T00:32:44.459Z,993.94
2018-03-25T00:33:45.056Z,993.94
2018-03-25T00:34:45.637Z,993.94
2018-03-25T00:35:46.238Z,993.97
2018-03-25T00:36:46.823Z,993.97
2018-03-25T00:37:47.421Z,993.95
2018-03-25T00:38:48.006Z,993.92
2018-03-25T00:39:48.595Z,993.97
2018-03-25T00:40:49.190Z,993.97
2018-03-25T00:41:49.781Z,994.00
2018-03-25T00:42:50.373Z,993.99
2018-03-25T00:43:50.980Z,993.95
2018-03-25T00:44:51.570Z,993.99
2018-03-25T00:45:52.163Z,993.99
2018-03-25T00:46:52.751Z,993.95
2018-03-25T00:47:53.339Z,994.02
2018-03-25T00:48:53.935Z,993.99
2018-03-25T00:49:54.526Z,993.97
2018-03-25T00:50:55.118Z,994.02
2018-03-25T00:51:55.706Z,994.02
2018-03-25T00:52:56.296Z,993.99
2018-03-25T00:53:56.891Z,994.02
2018-03-25T00:54:57.482Z,994.02
2018-03-25T00:55:58.080Z,994.03
2018-03-25T00:56:58.677Z,994.01
2018-03-25T00:57:59.276Z,994.03
2018-03-25T00:58:59.906Z,993.99
2018-03-25T01:00:00.646Z,993.99
2018-03-25T01:01:01.272Z,993.97
2018-03-25T01:02:01.921Z,994.00
2018-03-25T01:03:02.468Z,993.96
2018-03-25T01:04:03.156Z,993.99
2018-03-25T01:05:03.769Z,994.01
2018-03-25T01:06:04.356Z,994.01
2018-03-25T01:07:05.016Z,994.03
2018-03-25T01:08:05.578Z,994.00
2018-03-25T01:09:06.311Z,994.00
2018-03-25T01:10:06.818Z,994.00
2018-03-25T01:11:07.423Z,994.01
2018-03-25T01:12:08.019Z,993.99
2018-03-25T01:13:08.612Z,994.00
2018-03-25T01:14:09.264Z,994.00
2018-03-25T01:15:09.838Z,993.99
2018-03-25T01:16:10.428Z,994.03
2018-03-25T01:17:11.044Z,994.03
2018-03-25T01:18:11.619Z,994.04
2018-03-25T01:19:12.267Z,994.04
2018-03-25T01:20:12.824Z,994.05
2018-03-25T01:21:13.415Z,994.07
2018-03-25T01:22:14.019Z,994.07
2018-03-25T01:23:14.595Z,994.04
2018-03-25T01:24:15.211Z,994.02
2018-03-25T01:25:15.803Z,994.03
2018-03-25T01:26:16.384Z,994.01
2018-03-25T01:27:16.978Z,994.04
2018-03-25T01:28:17.574Z,993.99
2018-03-25T01:29:18.166Z,994.01
2018-03-25T01:30:18.758Z,994.01
2018-03-25T01:31:19.338Z,994.00
2018-03-25T01:32:19.939Z,994.00
2018-03-25T01:33:20.569Z,994.01
2018-03-25T01:34:21.112Z,994.00
2018-03-25T01:35:21.709Z,993.94
2018-03-25T01:36:22.295Z,993.95
2018-03-25T01:37:22.882Z,993.96
2018-03-25T01:38:23.480Z,993.98
2018-03-25T01:39:24.071Z,993.95
2018-03-25T01:40:24.657Z,994.00
2018-03-25T01:41:25.251Z,993.94
2018-03-25T01:42:25.836Z,994.05
2018-03-25T01:43:26.434Z,994.00
2018-03-25T01:44:27.025Z,994.01
2018-03-25T01:45:27.622Z,994.01
2018-03-25T01:46:28.226Z,994.04
2018-03-25T01:47:28.805Z,994.06
2018-03-25T01:48:29.399Z,994.05
2018-03-25T01:49:29.994Z,994.08
2018-03-25T01:50:30.581Z,994.05
2018-03-25T01:51:31.178Z,994.08
2018-03-25T01:52:31.772Z,994.07
2018-03-25T01:53:32.359Z,994.05
2018-03-25T01:54:32.952Z,994.05
2018-03-25T01:55:33.541Z,994.02
2018-03-25T01:56:34.129Z,994.04
2018-03-25T01:57:34.725Z,994.05
2018-03-25T01:58:35.313Z,994.05
2018-03-25T01:59:35.902Z,994.03
2018-03-25T02:00:36.490Z,994.06
2018-03-25T02:01:37.076Z,994.09
2018-03-25T02:02:37.673Z,994.07
2018-03-25T02:03:38.266Z,994.08
2018-03-25T02:04:38.850Z,994.06
2018-03-25T02:05:39.448Z,994.10
2018-03-25T02:06:40.034Z,994.08
2018-03-25T02:07:40.616Z,994.04
2018-03-25T02:08:41.202Z,994.06
2018-03-25T02:09:41.796Z,994.08
2018-03-25T02:10:42.382Z,994.08
2018-03-25T02:11:42.966Z,994.08
2018-03-25T02:12:43.553Z,994.13
2018-03-25T02:13:44.142Z,994.10
2018-03-25T02:14:44.722Z,994.08
2018-03-25T02:15:45.320Z,994.10
2018-03-25T02:16:45.913Z,994.10
2018-03-25T02:17:46.500Z,994.13
2018-03-25T02:18:47.097Z,994.12
2018-03-25T02:19:47.687Z,994.11
2018-03-25T02:20:48.284Z,994.08
2018-03-25T02:21:48.877Z,994.09
2018-03-25T02:22:49.463Z,994.11
2018-03-25T02:23:50.058Z,994.07
2018-03-25T02:24:50.650Z,994.05
2018-03-25T02:25:51.242Z,994.09
2018-03-25T02:26:51.818Z,994.11
2018-03-25T02:27:52.432Z,994.09
2018-03-25T02:28:53.004Z,994.08
2018-03-25T02:29:53.592Z,994.11
2018-03-25T02:30:54.179Z,994.11
2018-03-25T02:31:54.769Z,994.15
2018-03-25T02:32:55.361Z,994.13
2018-03-25T02:33:55.956Z,994.10
2018-03-25T02:34:56.548Z,994.12
2018-03-25T02:35:57.128Z,994.13
2018-03-25T02:36:57.720Z,994.12
2018-03-25T02:37:58.323Z,994.11
2018-03-25T02:38:58.911Z,994.10
2018-03-25T02:39:59.499Z,994.15
2018-03-25T02:41:00.086Z,994.17
2018-03-25T02:42:00.681Z,994.18
2018-03-25T02:43:01.265Z,994.17
2018-03-25T02:44:01.858Z,994.20
2018-03-25T02:45:02.452Z,994.22
2018-03-25T02:46:03.044Z,994.21
2018-03-25T02:47:03.645Z,994.21
2018-03-25T02:48:04.234Z,994.20
2018-03-25T02:49:04.833Z,994.22
2018-03-25T02:50:05.425Z,994.28
2018-03-25T02:51:06.031Z,994.23
2018-03-25T02:52:06.627Z,994.21
2018-03-25T02:53:07.213Z,994.25
2018-03-25T02:54:07.808Z,994.21
2018-03-25T02:55:08.398Z,994.23
2018-03-25T02:56:09.000Z,994.23
2018-03-25T02:57:09.598Z,994.22
2018-03-25T02:58:10.193Z,994.23
2018-03-25T02:59:10.785Z,994.27
2018-03-25T03:00:11.380Z,994.24
2018-03-25T03:01:11.963Z,994.27
2018-03-25T03:02:12.554Z,994.27
2018-03-25T03:03:13.145Z,994.29
2018-03-25T03:04:13.748Z,994.29
2018-03-25T03:05:14.339Z,994.28
2018-03-25T03:06:14.931Z,994.29
2018-03-25T03:07:15.529Z,994.30
2018-03-25T03:08:16.121Z,994.30
2018-03-25T03:09:16.717Z,994.33
2018-03-25T03:10:17.317Z,994.31
2018-03-25T03:11:17.904Z,994.28
2018-03-25T03:12:18.496Z,994.31
2018-03-25T03:13:19.092Z,994.34
2018-03-25T03:14:19.687Z,994.34
2018-03-25T03:15:20.272Z,994.36
2018-03-25T03:16:20.864Z,994.35
2018-03-25T03:17:21.459Z,994.36
2018-03-25T03:18:22.047Z,994.39
2018-03-25T03:19:22.645Z,994.37
2018-03-25T03:20:23.235Z,994.42
2018-03-25T03:21:23.831Z,994.40
2018-03-25T03:22:24.412Z,994.40
2018-03-25T03:23:25.012Z,994.44
2018-03-25T03:24:25.607Z,994.45
2018-03-25T03:25:26.205Z,994.45
2018-03-25T03:26:26.789Z,994.47
2018-03-25T03:27:27.386Z,994.46
2018-03-25T03:28:27.985Z,994.48
2018-03-25T03:29:28.579Z,994.47
2018-03-25T03:30:29.174Z,994.51
2018-03-25T03:31:29.766Z,994.51
2018-03-25T03:32:30.352Z,994.55
2018-03-25T03:33:30.942Z,994.56
2018-03-25T03:34:31.542Z,994.58
2018-03-25T03:35:32.130Z,994.59
2018-03-25T03:36:32.727Z,994.67
2018-03-25T03:37:33.319Z,994.65
2018-03-25T03:38:33.919Z,994.70
2018-03-25T03:39:34.519Z,994.73
2018-03-25T03:40:35.099Z,994.70
2018-03-25T03:41:35.687Z,994.69
2018-03-25T03:42:36.275Z,994.71
2018-03-25T03:43:36.873Z,994.73
2018-03-25T03:44:37.461Z,994.76
2018-03-25T03:45:38.085Z,994.76
2018-03-25T03:46:38.637Z,994.77
2018-03-25T03:47:39.227Z,994.82
2018-03-25T03:48:39.821Z,994.83
2018-03-25T03:49:40.403Z,994.83
2018-03-25T03:50:40.988Z,994.86
2018-03-25T03:51:41.575Z,994.85
2018-03-25T03:52:42.171Z,994.85
2018-03-25T03:53:42.764Z,994.81
2018-03-25T03:54:43.353Z,994.84
2018-03-25T03:55:43.946Z,994.81
2018-03-25T03:56:44.534Z,994.79
2018-03-25T03:57:45.121Z,994.85
2018-03-25T03:58:45.705Z,994.85
2018-03-25T03:59:46.301Z,994.84
2018-03-25T04:00:46.892Z,994.84
2018-03-25T04:01:47.473Z,994.85
2018-03-25T04:02:48.069Z,994.86
2018-03-25T04:03:48.656Z,994.89
2018-03-25T04:04:49.251Z,994.91
2018-03-25T04:05:49.835Z,994.91
2018-03-25T04:06:50.431Z,994.88
2018-03-25T04:07:51.028Z,994.92
2018-03-25T04:08:51.621Z,994.89
2018-03-25T04:09:52.214Z,994.91
2018-03-25T04:10:52.805Z,994.87
2018-03-25T04:11:53.393Z,994.86
2018-03-25T04:12:53.989Z,994.92
2018-03-25T04:13:54.588Z,994.94
2018-03-25T04:14:55.180Z,994.93
2018-03-25T04:15:55.779Z,994.94
2018-03-25T04:16:56.374Z,994.95
2018-03-25T04:17:56.972Z,994.97
2018-03-25T04:18:57.580Z,995.00
2018-03-25T04:19:58.151Z,994.98
2018-03-25T04:20:58.756Z,995.01
2018-03-25T04:21:59.325Z,994.98
2018-03-25T04:22:59.916Z,995.00
2018-03-25T04:24:00.511Z,994.99
2018-03-25T04:25:01.106Z,995.00
2018-03-25T04:26:01.702Z,995.04
2018-03-25T04:27:02.296Z,994.99
2018-03-25T04:28:02.883Z,994.98
2018-03-25T04:29:03.477Z,995.01
2018-03-25T04:30:04.072Z,995.00
2018-03-25T04:31:04.661Z,995.01
2018-03-25T04:32:05.240Z,995.00
2018-03-25T04:33:05.850Z,995.01
2018-03-25T04:34:06.429Z,995.02
2018-03-25T04:35:07.010Z,995.00
2018-03-25T04:36:07.607Z,995.01
2018-03-25T04:37:08.199Z,995.00
2018-03-25T04:38:08.797Z,994.96
2018-03-25T04:39:09.396Z,994.99
2018-03-25T04:40:09.978Z,995.00
2018-03-25T04:41:10.573Z,994.97
2018-03-25T04:42:11.165Z,994.98
2018-03-25T04:43:11.765Z,994.99
2018-03-25T04:44:12.353Z,994.95
2018-03-25T04:45:12.937Z,995.03
2018-03-25T04:46:13.528Z,995.01
2018-03-25T04:47:14.120Z,995.05
2018-03-25T04:48:14.707Z,995.05
2018-03-25T04:49:15.295Z,995.07
2018-03-25T04:50:15.876Z,995.10
2018-03-25T04:51:16.468Z,995.14
2018-03-25T04:52:17.056Z,995.10
2018-03-25T04:53:17.659Z,995.15
2018-03-25T04:54:18.246Z,995.17
2018-03-25T04:55:18.840Z,995.18
2018-03-25T04:56:19.436Z,995.14
2018-03-25T04:57:20.034Z,995.16
2018-03-25T04:58:20.634Z,995.19
2018-03-25T04:59:21.229Z,995.17
2018-03-25T05:00:21.809Z,995.18
2018-03-25T05:01:22.399Z,995.18
2018-03-25T05:02:22.989Z,995.21
2018-03-25T05:03:23.580Z,995.23
2018-03-25T05:04:24.174Z,995.26
2018-03-25T05:05:24.774Z,995.28
2018-03-25T05:06:25.368Z,995.26
2018-03-25T05:07:25.974Z,995.27
2018-03-25T05:08:26.546Z,995.29
2018-03-25T05:09:27.140Z,995.32
2018-03-25T05:10:27.723Z,995.30
2018-03-25T05:11:28.313Z,995.30
2018-03-25T05:12:28.905Z,995.30
2018-03-25T05:13:29.493Z,995.32
2018-03-25T05:14:30.092Z,995.33
2018-03-25T05:15:30.696Z,995.31
2018-03-25T05:16:31.282Z,995.33
2018-03-25T05:17:31.870Z,995.32
2018-03-25T05:18:32.472Z,995.32
2018-03-25T05:19:33.070Z,995.34
2018-03-25T05:20:33.665Z,995.34
2018-03-25T05:21:34.263Z,995.36
2018-03-25T05:22:34.858Z,995.32
2018-03-25T05:23:35.447Z,995.38
2018-03-25T05:24:36.031Z,995.30
2018-03-25T05:25:36.635Z,995.33
2018-03-25T05:26:37.233Z,995.32
2018-03-25T05:27:37.826Z,995.32
2018-03-25T05:28:38.420Z,995.34
2018-03-25T05:29:39.011Z,995.36
2018-03-25T05:30:39.609Z,995.35
2018-03-25T05:31:40.199Z,995.39
2018-03-25T05:32:40.788Z,995.38
2018-03-25T05:33:41.399Z,995.35
2018-03-25T05:34:41.985Z,995.39
2018-03-25T05:35:42.587Z,995.34
2018-03-25T05:36:43.184Z,995.34
2018-03-25T05:37:43.773Z,995.35
2018-03-25T05:38:44.369Z,995.39
2018-03-25T05:39:44.971Z,995.37
2018-03-25T05:40:45.572Z,995.35
2018-03-25T05:41:46.166Z,995.39
2018-03-25T05:42:46.768Z,995.42
2018-03-25T05:43:47.366Z,995.43
2018-03-25T05:44:47.958Z,995.42
2018-03-25T05:45:48.550Z,995.43
2018-03-25T05:46:49.150Z,995.46
2018-03-25T05:47:49.749Z,995.44
2018-03-25T05:48:50.328Z,995.48
2018-03-25T05:49:50.928Z,995.51
2018-03-25T05:50:51.518Z,995.56
2018-03-25T05:51:52.111Z,995.54
2018-03-25T05:52:52.705Z,995.52
2018-03-25T05:53:53.298Z,995.53
2018-03-25T05:54:53.885Z,995.56
2018-03-25T05:55:54.480Z,995.59
2018-03-25T05:56:55.078Z,995.59
2018-03-25T05:57:55.675Z,995.58
2018-03-25T05:58:56.271Z,995.58
2018-03-25T05:59:56.878Z,995.62
2018-03-25T06:00:57.464Z,995.59
2018-03-25T06:01:58.054Z,995.60
2018-03-25T06:02:58.649Z,995.59
2018-03-25T06:03:59.251Z,995.60
2018-03-25T06:04:59.848Z,995.62
2018-03-25T06:06:00.442Z,995.65
2018-03-25T06:07:01.043Z,995.68
2018-03-25T06:08:01.644Z,995.64
2018-03-25T06:09:02.236Z,995.70
2018-03-25T06:10:02.835Z,995.71
2018-03-25T06:11:03.431Z,995.68
2018-03-25T06:12:04.025Z,995.76
2018-03-25T06:13:04.619Z,995.78
2018-03-25T06:14:05.213Z,995.78
2018-03-25T06:15:05.804Z,995.81
2018-03-25T06:16:06.404Z,995.79
2018-03-25T06:17:07.001Z,995.80
2018-03-25T06:18:07.601Z,995.84
2018-03-25T06:19:08.206Z,995.84
2018-03-25T06:20:08.796Z,995.83
2018-03-25T06:21:09.395Z,995.88
2018-03-25T06:22:09.994Z,995.87
2018-03-25T06:23:10.598Z,995.91
2018-03-25T06:24:11.212Z,995.93
2018-03-25T06:25:11.794Z,995.93
2018-03-25T06:26:12.401Z,995.95
2018-03-25T06:27:12.997Z,995.98
2018-03-25T06:28:13.587Z,996.01
2018-03-25T06:29:14.189Z,995.96
2018-03-25T06:30:14.793Z,996.01
2018-03-25T06:31:15.380Z,996.02
2018-03-25T06:32:15.979Z,996.03
2018-03-25T06:33:16.580Z,996.04
2018-03-25T06:34:17.187Z,996.07
2018-03-25T06:35:17.796Z,996.05
2018-03-25T06:36:18.391Z,996.04
2018-03-25T06:37:18.992Z,996.08
2018-03-25T06:38:19.595Z,996.08
2018-03-25T06:39:20.228Z,996.08
2018-03-25T06:40:20.807Z,996.15
2018-03-25T06:41:21.394Z,996.11
2018-03-25T06:42:21.992Z,996.15
2018-03-25T06:43:22.590Z,996.16
2018-03-25T06:44:23.192Z,996.14
2018-03-25T06:45:23.794Z,996.22
2018-03-25T06:46:24.397Z,996.18
2018-03-25T06:47:25.001Z,996.19
2018-03-25T06:48:25.599Z,996.22
2018-03-25T06:49:26.191Z,996.28
2018-03-25T06:50:26.792Z,996.28
2018-03-25T06:51:27.392Z,996.29
2018-03-25T06:52:28.000Z,996.34
2018-03-25T06:53:28.606Z,996.34
2018-03-25T06:54:29.212Z,996.35
2018-03-25T06:55:29.824Z,996.36
2018-03-25T06:56:30.426Z,996.39
2018-03-25T06:57:31.040Z,996.37
2018-03-25T06:58:31.653Z,996.41
2018-03-25T06:59:32.255Z,996.39
2018-03-25T07:00:32.860Z,996.43
2018-03-25T07:01:33.461Z,996.41
2018-03-25T07:02:34.074Z,996.45
2018-03-25T07:03:34.679Z,996.48
2018-03-25T07:04:35.291Z,996.49
2018-03-25T07:05:35.899Z,996.51
2018-03-25T07:06:36.499Z,996.50
2018-03-25T07:07:37.103Z,996.51
2018-03-25T07:08:37.736Z,996.52
2018-03-25T07:09:38.296Z,996.55
2018-03-25T07:10:38.908Z,996.58
2018-03-25T07:11:39.516Z,996.57
2018-03-25T07:12:40.124Z,996.58
2018-03-25T07:13:40.737Z,996.58
2018-03-25T07:14:41.341Z,996.58
2018-03-25T07:15:41.971Z,996.62
2018-03-25T07:16:42.555Z,996.65
2018-03-25T07:17:43.158Z,996.67
2018-03-25T07:18:43.766Z,996.69
2018-03-25T07:19:44.375Z,996.73
2018-03-25T07:20:44.985Z,996.71
2018-03-25T07:21:45.572Z,996.74
2018-03-25T07:22:46.181Z,996.75
2018-03-25T07:23:46.787Z,996.80
2018-03-25T07:24:47.396Z,996.75
2018-03-25T07:25:47.996Z,996.78
2018-03-25T07:26:48.588Z,996.80
2018-03-25T07:27:49.190Z,996.80
2018-03-25T07:28:49.798Z,996.84
2018-03-25T07:29:50.402Z,996.84
2018-03-25T07:30:51.005Z,996.85
2018-03-25T07:31:51.614Z,996.86
2018-03-25T07:32:52.222Z,996.88
2018-03-25T07:33:52.832Z,996.92
2018-03-25T07:34:53.433Z,996.93
2018-03-25T07:35:54.042Z,996.92
2018-03-25T07:36:54.638Z,996.97
2018-03-25T07:37:55.254Z,996.96
2018-03-25T07:38:55.867Z,996.93
2018-03-25T07:39:56.476Z,996.95
2018-03-25T07:40:57.094Z,996.97
2018-03-25T07:41:57.707Z,996.98
2018-03-25T07:42:58.300Z,996.98
2018-03-25T07:43:58.906Z,997.00
2018-03-25T07:44:59.521Z,997.05
2018-03-25T07:46:00.137Z,997.00
2018-03-25T07:47:00.742Z,997.01
2018-03-25T07:48:01.358Z,997.03
2018-03-25T07:49:02.013Z,997.04
2018-03-25T07:50:02.669Z,997.06
2018-03-25T07:51:03.202Z,997.07
2018-03-25T07:52:03.810Z,997.14
2018-03-25T07:53:04.408Z,997.11
2018-03-25T07:54:05.078Z,997.12
2018-03-25T07:55:05.665Z,997.14
2018-03-25T07:56:06.270Z,997.10
2018-03-25T07:57:06.888Z,997.08
2018-03-25T07:58:07.487Z,997.14
2018-03-25T07:59:08.108Z,997.15
2018-03-25T08:00:09.052Z,997.17
2018-03-25T08:01:09.625Z,997.15
2018-03-25T08:02:10.222Z,997.17
2018-03-25T08:03:10.849Z,997.17
2018-03-25T08:04:11.447Z,997.17
2018-03-25T08:05:12.062Z,997.17
2018-03-25T08:06:12.702Z,997.19
2018-03-25T08:07:13.328Z,997.21
2018-03-25T08:08:13.924Z,997.21
2018-03-25T08:09:14.563Z,997.21
2018-03-25T08:10:15.124Z,997.21
2018-03-25T08:11:15.734Z,997.21
2018-03-25T08:12:16.361Z,997.23
2018-03-25T08:13:16.993Z,997.25
2018-03-25T08:14:17.612Z,997.21
2018-03-25T08:15:18.206Z,997.29
2018-03-25T08:16:18.823Z,997.31
2018-03-25T08:17:19.451Z,997.33
2018-03-25T08:18:20.099Z,997.32
2018-03-25T08:19:20.763Z,997.33
2018-03-25T08:20:21.370Z,997.28
2018-03-25T08:21:21.974Z,997.29
2018-03-25T08:22:22.587Z,997.31
2018-03-25T08:23:23.203Z,997.32
2018-03-25T08:24:23.812Z,997.28
2018-03-25T08:25:24.416Z,997.31
2018-03-25T08:26:25.027Z,997.34
2018-03-25T08:27:25.639Z,997.35
2018-03-25T08:28:26.260Z,997.34
2018-03-25T08:29:26.875Z,997.32
2018-03-25T08:30:27.486Z,997.34
2018-03-25T08:31:28.102Z,997.34
2018-03-25T08:32:28.726Z,997.39
2018-03-25T08:33:29.335Z,997.41
2018-03-25T08:34:29.946Z,997.40
2018-03-25T08:35:30.564Z,997.41
2018-03-25T08:36:31.175Z,997.38
2018-03-25T08:37:31.781Z,997.38
2018-03-25T08:38:32.400Z,997.41
2018-03-25T08:39:33.005Z,997.41
2018-03-25T08:40:33.627Z,997.39
2018-03-25T08:41:34.231Z,997.39
2018-03-25T08:42:34.852Z,997.42
2018-03-25T08:43:35.454Z,997.40
2018-03-25T08:44:36.067Z,997.40
2018-03-25T08:45:36.674Z,997.50
2018-03-25T08:46:37.302Z,997.45
2018-03-25T08:47:37.909Z,997.42
2018-03-25T08:48:38.523Z,997.44
2018-03-25T08:49:39.130Z,997.42
2018-03-25T08:50:39.753Z,997.45
2018-03-25T08:51:40.362Z,997.44
2018-03-25T08:52:40.967Z,997.45
2018-03-25T08:53:41.590Z,997.49
2018-03-25T08:54:42.245Z,997.46
2018-03-25T08:55:42.816Z,997.47
2018-03-25T08:56:43.423Z,997.47
2018-03-25T08:57:44.039Z,997.47
2018-03-25T08:58:44.640Z,997.48
2018-03-25T08:59:45.248Z,997.46
2018-03-25T09:00:45.864Z,997.51
2018-03-25T09:01:46.470Z,997.46
2018-03-25T09:02:47.084Z,997.47
2018-03-25T09:03:47.694Z,997.48
2018-03-25T09:04:48.314Z,997.52
2018-03-25T09:05:48.917Z,997.51
2018-03-25T09:06:49.537Z,997.51
2018-03-25T09:07:50.132Z,997.49
2018-03-25T09:08:50.744Z,997.51
2018-03-25T09:09:51.371Z,997.52
2018-03-25T09:10:51.966Z,997.49
2018-03-25T09:11:52.584Z,997.48
2018-03-25T09:12:53.207Z,997.48
2018-03-25T09:13:53.824Z,997.50
2018-03-25T09:14:54.449Z,997.55
2018-03-25T09:15:55.045Z,997.48
2018-03-25T09:16:55.667Z,997.46
2018-03-25T09:17:56.269Z,997.50
2018-03-25T09:18:56.888Z,997.52
2018-03-25T09:19:57.506Z,997.50
2018-03-25T09:20:58.124Z,997.49
2018-03-25T09:21:58.731Z,997.51
2018-03-25T09:22:59.339Z,997.51
2018-03-25T09:23:59.950Z,997.52
2018-03-25T09:25:00.558Z,997.54
2018-03-25T09:26:01.172Z,997.57
2018-03-25T09:27:01.783Z,997.61
2018-03-25T09:28:02.400Z,997.61
2018-03-25T09:29:03.015Z,997.66
2018-03-25T09:30:03.625Z,997.59
2018-03-25T09:31:04.241Z,997.64
2018-03-25T09:32:04.861Z,997.66
2018-03-25T09:33:05.475Z,997.68
2018-03-25T09:34:06.082Z,997.71
2018-03-25T09:35:06.701Z,997.67
2018-03-25T09:36:07.321Z,997.69
2018-03-25T09:37:07.934Z,997.70
2018-03-25T09:38:08.543Z,997.75
2018-03-25T09:39:09.164Z,997.69
2018-03-25T09:40:09.796Z,997.75
2018-03-25T09:41:10.404Z,997.78
2018-03-25T09:42:11.020Z,997.78
2018-03-25T09:43:11.639Z,997.78
2018-03-25T09:44:12.257Z,997.82
2018-03-25T09:45:12.868Z,997.81
2018-03-25T09:46:13.484Z,997.79
2018-03-25T09:47:14.095Z,997.81
2018-03-25T09:48:14.711Z,997.81
2018-03-25T09:49:15.329Z,997.84
2018-03-25T09:50:15.941Z,997.85
2018-03-25T09:51:16.551Z,997.85
2018-03-25T09:52:17.167Z,997.82
2018-03-25T09:53:17.784Z,997.85
2018-03-25T09:54:18.405Z,997.87
2018-03-25T09:55:19.019Z,997.85
2018-03-25T09:56:19.639Z,997.90
2018-03-25T09:57:20.256Z,997.87
2018-03-25T09:58:20.865Z,997.86
2018-03-25T09:59:21.490Z,997.89
2018-03-25T10:00:22.099Z,997.93
2018-03-25T10:01:22.721Z,997.93
2018-03-25T10:02:23.347Z,997.91
2018-03-25T10:03:23.953Z,997.91
2018-03-25T10:04:24.574Z,997.95
2018-03-25T10:05:25.182Z,997.94
2018-03-25T10:06:25.805Z,997.97
2018-03-25T10:07:26.413Z,997.93
2018-03-25T10:08:27.035Z,997.95
2018-03-25T10:09:27.654Z,997.96
2018-03-25T10:10:28.271Z,997.96
2018-03-25T10:11:28.947Z,998.00
2018-03-25T10:12:29.503Z,997.99
2018-03-25T10:13:30.116Z,997.99
2018-03-25T10:14:30.734Z,997.98
2018-03-25T10:15:31.357Z,997.98
2018-03-25T10:16:31.976Z,998.02
2018-03-25T10:17:32.595Z,998.00
2018-03-25T10:18:33.217Z,998.00
2018-03-25T10:19:33.832Z,997.98
2018-03-25T10:20:34.454Z,998.00
2018-03-25T10:21:35.062Z,998.00
2018-03-25T10:22:35.688Z,998.01
2018-03-25T10:23:36.299Z,998.03
2018-03-25T10:24:36.914Z,998.03
2018-03-25T10:25:37.526Z,998.00
2018-03-25T10:26:38.137Z,998.06
2018-03-25T10:27:38.750Z,998.07
2018-03-25T10:28:39.360Z,998.09
2018-03-25T10:29:39.987Z,998.09
2018-03-25T10:30:40.603Z,998.10
2018-03-25T10:31:41.218Z,998.05
2018-03-25T10:32:41.829Z,998.10
2018-03-25T10:33:42.450Z,998.05
2018-03-25T10:34:43.063Z,998.08
2018-03-25T10:35:43.690Z,998.13
2018-03-25T10:36:44.307Z,998.08
2018-03-25T10:37:44.936Z,998.12
2018-03-25T10:38:45.534Z,998.12
2018-03-25T10:39:46.160Z,998.04
2018-03-25T10:40:46.772Z,998.08
2018-03-25T10:41:47.390Z,998.06
2018-03-25T10:42:47.994Z,998.04
2018-03-25T10:43:48.611Z,998.03
2018-03-25T10:44:49.233Z,998.04
2018-03-25T10:45:49.852Z,998.00
2018-03-25T10:46:50.469Z,998.01
2018-03-25T10:47:51.085Z,998.00
2018-03-25T10:48:51.711Z,997.96
2018-03-25T10:49:52.324Z,998.00
2018-03-25T10:50:52.939Z,997.97
2018-03-25T10:51:53.553Z,997.94
2018-03-25T10:52:54.173Z,997.99
2018-03-25T10:53:54.778Z,998.02
2018-03-25T10:54:55.398Z,997.98
2018-03-25T10:55:56.015Z,997.97
2018-03-25T10:56:56.620Z,997.98
2018-03-25T10:57:57.231Z,997.97
2018-03-25T10:58:57.862Z,997.98
2018-03-25T10:59:58.459Z,997.98
2018-03-25T11:00:59.070Z,998.05
2018-03-25T11:01:59.687Z,998.03
2018-03-25T11:03:00.315Z,998.00
2018-03-25T11:04:00.918Z,998.00
2018-03-25T11:05:01.526Z,998.04
2018-03-25T11:06:02.143Z,998.06
2018-03-25T11:07:02.765Z,998.11
2018-03-25T11:08:03.381Z,998.11
2018-03-25T11:09:04.000Z,998.08
2018-03-25T11:10:04.621Z,998.08
2018-03-25T11:11:05.233Z,998.12
2018-03-25T11:12:05.859Z,998.14
2018-03-25T11:13:06.472Z,998.08
2018-03-25T11:14:07.077Z,998.17
2018-03-25T11:15:07.685Z,998.17
2018-03-25T11:16:08.305Z,998.17
2018-03-25T11:17:08.922Z,998.18
2018-03-25T11:18:09.538Z,998.21
2018-03-25T11:19:10.154Z,998.17
2018-03-25T11:20:10.767Z,998.17
2018-03-25T11:21:11.387Z,998.18
2018-03-25T11:22:12.006Z,998.18
2018-03-25T11:23:12.620Z,998.19
2018-03-25T11:24:13.241Z,998.16
2018-03-25T11:25:13.856Z,998.13
2018-03-25T11:26:14.469Z,998.12
2018-03-25T11:27:15.079Z,998.10
2018-03-25T11:28:15.702Z,998.14
2018-03-25T11:29:16.321Z,998.04
2018-03-25T11:30:16.936Z,998.12
2018-03-25T11:31:17.547Z,998.10
2018-03-25T11:32:18.165Z,998.06
2018-03-25T11:33:18.772Z,998.13
2018-03-25T11:34:19.385Z,998.09
2018-03-25T11:35:20.010Z,998.09
2018-03-25T11:36:20.606Z,998.07
2018-03-25T11:37:21.219Z,998.08
2018-03-25T11:38:21.966Z,998.09
2018-03-25T11:39:22.547Z,998.06
2018-03-25T11:40:23.163Z,998.09
2018-03-25T11:41:23.782Z,998.11
2018-03-25T11:42:24.392Z,998.11
2018-03-25T11:43:25.006Z,998.12
2018-03-25T11:44:25.620Z,998.10
2018-03-25T11:45:26.242Z,998.13
2018-03-25T11:46:26.858Z,998.09
2018-03-25T11:47:27.494Z,998.11
2018-03-25T11:48:28.099Z,998.13
2018-03-25T11:49:28.718Z,998.18
2018-03-25T11:50:29.338Z,998.14
2018-03-25T11:51:29.957Z,998.11
2018-03-25T11:52:30.662Z,998.14
2018-03-25T11:53:31.207Z,998.17
2018-03-25T11:54:31.903Z,998.18
2018-03-25T11:55:32.513Z,998.18
2018-03-25T11:56:33.132Z,998.16
2018-03-25T11:57:33.752Z,998.17
2018-03-25T11:58:34.362Z,998.17
2018-03-25T11:59:34.985Z,998.13
2018-03-25T12:00:35.585Z,998.17
2018-03-25T12:01:36.201Z,998.15
2018-03-25T12:02:36.823Z,998.15
2018-03-25T12:03:37.433Z,998.14
2018-03-25T12:04:38.048Z,998.17
2018-03-25T12:05:38.664Z,998.16
2018-03-25T12:06:39.273Z,998.19
2018-03-25T12:07:39.896Z,998.19
2018-03-25T12:08:40.513Z,998.21
2018-03-25T12:09:41.187Z,998.22
2018-03-25T12:10:41.759Z,998.22
2018-03-25T12:11:42.538Z,998.25
2018-03-25T12:12:43.123Z,998.25
2018-03-25T12:13:43.743Z,998.22
2018-03-25T12:14:44.465Z,998.25
2018-03-25T12:15:45.063Z,998.22
2018-03-25T12:16:45.683Z,998.19
2018-03-25T12:17:46.298Z,998.19
2018-03-25T12:18:46.990Z,998.24
2018-03-25T12:19:47.597Z,998.20
2018-03-25T12:20:48.212Z,998.23
2018-03-25T12:21:48.831Z,998.22
2018-03-25T12:22:49.445Z,998.25
2018-03-25T12:23:50.086Z,998.21
2018-03-25T12:24:50.672Z,998.20
2018-03-25T12:25:51.431Z,998.16
2018-03-25T12:26:51.967Z,998.29
2018-03-25T12:27:52.618Z,998.25
2018-03-25T12:28:53.213Z,998.23
2018-03-25T12:29:53.833Z,998.20
2018-03-25T12:30:54.438Z,998.22
2018-03-25T12:31:55.067Z,998.23
2018-03-25T12:32:55.682Z,998.17
2018-03-25T12:33:56.305Z,998.23
2018-03-25T12:34:56.927Z,998.24
2018-03-25T12:35:57.539Z,998.24